createdAt,value
2023-05-18T00:00:04.394Z,1.50
2023-05-18T00:02:31.732Z,1.50
2023-05-18T00:05:02.253Z,1.40
2023-05-18T00:07:34.207Z,1.30
2023-05-18T00:10:01.944Z,1.10
2023-05-18T00:12:28.908Z,0.80
2023-05-18T00:14:55.923Z,0.80
2023-05-18T00:17:23.557Z,0.90
2023-05-18T00:19:50.803Z,0.80
2023-05-18T00:22:20.684Z,0.70
2023-05-18T00:24:47.892Z,0.70
2023-05-18T00:27:14.941Z,0.70
2023-05-18T00:29:41.790Z,0.80
2023-05-18T00:32:08.600Z,0.80
2023-05-18T00:34:37.154Z,0.80
2023-05-18T00:37:04.183Z,0.90
2023-05-18T00:39:31.051Z,0.90
2023-05-18T00:41:58.055Z,1.00
2023-05-18T00:44:25.046Z,0.80
2023-05-18T00:46:52.201Z,0.80
2023-05-18T00:49:19.221Z,0.80
2023-05-18T00:51:46.156Z,1.00
2023-05-18T00:54:13.116Z,0.70
2023-05-18T00:56:42.528Z,0.80
2023-05-18T00:59:10.561Z,0.90
2023-05-18T01:01:43.752Z,0.80
2023-05-18T01:04:14.326Z,0.90
2023-05-18T01:06:42.086Z,1.00
2023-05-18T01:09:10.250Z,1.00
2023-05-18T01:11:40.229Z,1.00
2023-05-18T01:14:32.751Z,1.10
2023-05-18T01:17:07.370Z,0.90
2023-05-18T01:19:49.817Z,1.20
2023-05-18T01:22:23.327Z,0.90
2023-05-18T01:24:53.447Z,0.90
2023-05-18T01:27:21.553Z,1.00
2023-05-18T01:29:48.373Z,1.00
2023-05-18T01:32:21.868Z,0.90
2023-05-18T01:34:48.904Z,1.00
2023-05-18T01:37:16.243Z,0.90
2023-05-18T01:39:43.152Z,1.10
2023-05-18T01:42:15.944Z,1.20
2023-05-18T01:44:47.834Z,1.10
2023-05-18T01:47:17.962Z,1.40
2023-05-18T01:49:57.007Z,0.90
2023-05-18T01:52:33.632Z,1.20
2023-05-18T01:55:02.646Z,1.00
2023-05-18T01:57:30.005Z,1.10
2023-05-18T02:00:00.065Z,1.20
2023-05-18T02:02:29.324Z,1.30
2023-05-18T02:04:56.535Z,1.70
2023-05-18T02:07:23.356Z,1.30
2023-05-18T02:09:50.192Z,1.30
2023-05-18T02:12:17.059Z,1.30
2023-05-18T02:14:43.962Z,1.50
2023-05-18T02:17:11.702Z,1.60
2023-05-18T02:19:38.800Z,1.30
2023-05-18T02:22:07.111Z,1.20
2023-05-18T02:24:34.535Z,1.30
2023-05-18T02:27:01.527Z,1.40
2023-05-18T02:29:28.457Z,1.60
2023-05-18T02:31:55.993Z,1.70
2023-05-18T02:34:24.791Z,1.80
2023-05-18T02:36:51.860Z,1.50
2023-05-18T02:39:18.832Z,1.90
2023-05-18T02:41:45.800Z,1.60
2023-05-18T02:44:13.028Z,2.00
2023-05-18T02:46:39.944Z,2.10
2023-05-18T02:49:07.032Z,2.10
2023-05-18T02:51:34.058Z,2.00
2023-05-18T02:54:01.911Z,2.10
2023-05-18T02:56:32.928Z,2.20
2023-05-18T02:59:11.684Z,1.90
2023-05-18T03:01:41.411Z,2.20
2023-05-18T03:04:08.546Z,1.90
2023-05-18T03:06:38.426Z,2.10
2023-05-18T03:09:05.314Z,2.20
2023-05-18T03:11:36.044Z,2.30
2023-05-18T03:14:03.483Z,2.20
2023-05-18T03:16:30.520Z,2.00
2023-05-18T03:19:02.278Z,3.10
2023-05-18T03:21:36.052Z,2.50
2023-05-18T03:24:03.435Z,2.30
2023-05-18T03:26:33.700Z,2.20
2023-05-18T03:29:02.132Z,2.10
2023-05-18T03:31:29.153Z,2.40
2023-05-18T03:33:57.268Z,2.40
2023-05-18T03:36:26.222Z,2.50
2023-05-18T03:38:53.047Z,2.50
2023-05-18T03:41:20.190Z,2.50
2023-05-18T03:43:47.119Z,3.10
2023-05-18T03:46:14.107Z,2.70
2023-05-18T03:48:40.869Z,2.50
2023-05-18T03:51:07.849Z,2.40
2023-05-18T03:53:36.344Z,2.30
2023-05-18T03:56:03.204Z,2.40
2023-05-18T03:58:30.239Z,2.50
2023-05-18T04:00:58.020Z,2.70
2023-05-18T04:03:27.270Z,2.60
2023-05-18T04:05:55.931Z,2.40
2023-05-18T04:08:25.717Z,2.40
2023-05-18T04:10:52.931Z,2.40
2023-05-18T04:13:19.962Z,2.50
2023-05-18T04:15:47.728Z,2.70
2023-05-18T04:18:14.773Z,2.40
2023-05-18T04:20:42.759Z,2.60
2023-05-18T04:23:10.196Z,2.40
2023-05-18T04:25:39.494Z,2.60
2023-05-18T04:28:14.989Z,2.50
2023-05-18T04:30:46.450Z,2.80
2023-05-18T04:33:20.598Z,3.00
2023-05-18T04:35:47.885Z,2.70
2023-05-18T04:38:16.570Z,2.30
2023-05-18T04:40:44.057Z,2.20
2023-05-18T04:43:13.354Z,2.90
2023-05-18T04:45:40.342Z,2.60
2023-05-18T04:48:07.782Z,3.00
2023-05-18T04:50:35.993Z,2.80
2023-05-18T04:53:08.025Z,2.60
2023-05-18T04:55:35.650Z,2.40
2023-05-18T04:58:06.235Z,2.60
2023-05-18T05:00:33.805Z,2.30
2023-05-18T05:03:00.830Z,2.70
2023-05-18T05:05:27.905Z,2.20
2023-05-18T05:07:55.883Z,2.30
2023-05-18T05:10:23.220Z,2.40
2023-05-18T05:12:50.695Z,2.50
2023-05-18T05:15:18.333Z,2.70
2023-05-18T05:17:49.376Z,2.30
2023-05-18T05:20:17.246Z,2.40
2023-05-18T05:22:44.299Z,2.30
2023-05-18T05:25:13.164Z,2.10
2023-05-18T05:27:40.217Z,2.60
2023-05-18T05:30:07.989Z,2.40
2023-05-18T05:32:36.758Z,2.20
2023-05-18T05:35:05.533Z,3.10
2023-05-18T05:37:32.625Z,2.50
2023-05-18T05:39:59.759Z,2.30
2023-05-18T05:42:28.056Z,2.40
2023-05-18T05:44:54.928Z,2.10
2023-05-18T05:47:23.331Z,2.70
2023-05-18T05:49:50.951Z,2.30
2023-05-18T05:52:18.178Z,2.70
2023-05-18T05:54:45.126Z,2.80
2023-05-18T05:57:11.948Z,2.60
2023-05-18T05:59:38.772Z,2.50
2023-05-18T06:02:06.650Z,2.80
2023-05-18T06:04:33.619Z,2.40
2023-05-18T06:07:02.207Z,2.30
2023-05-18T06:09:29.021Z,2.50
2023-05-18T06:11:56.329Z,3.50
2023-05-18T06:14:27.062Z,2.70
2023-05-18T06:16:55.846Z,2.40
2023-05-18T06:19:22.968Z,2.50
2023-05-18T06:21:51.059Z,2.60
2023-05-18T06:26:00.937Z,2.80
2023-05-18T06:28:47.825Z,3.00
2023-05-18T06:31:24.216Z,2.70
2023-05-18T06:33:56.266Z,2.50
2023-05-18T06:36:23.669Z,2.40
2023-05-18T06:38:50.521Z,2.40
2023-05-18T06:41:17.602Z,2.70
2023-05-18T06:43:44.579Z,2.20
2023-05-18T06:46:31.836Z,2.20
2023-05-18T06:49:01.552Z,2.80
2023-05-18T06:51:28.540Z,2.50
2023-05-18T06:53:56.475Z,2.80
2023-05-18T06:56:23.601Z,2.70
2023-05-18T06:58:51.883Z,2.80
2023-05-18T07:01:19.496Z,2.20
2023-05-18T07:03:46.662Z,3.00
2023-05-18T07:06:13.654Z,2.50
2023-05-18T07:08:40.813Z,3.10
2023-05-18T07:11:07.721Z,2.50
2023-05-18T07:13:35.054Z,2.60
2023-05-18T07:16:02.173Z,2.60
2023-05-18T07:18:29.057Z,2.90
2023-05-18T07:20:55.871Z,2.90
2023-05-18T07:23:23.470Z,2.70
2023-05-18T07:25:50.479Z,3.50
2023-05-18T07:28:17.550Z,3.00
2023-05-18T07:30:44.356Z,3.30
2023-05-18T07:33:11.230Z,2.50
2023-05-18T07:35:38.168Z,2.70
2023-05-18T07:38:05.029Z,2.90
2023-05-18T07:40:32.103Z,2.40
2023-05-18T07:43:07.111Z,2.40
2023-05-18T07:45:34.464Z,2.40
2023-05-18T07:48:01.867Z,2.50
2023-05-18T07:50:29.570Z,2.60
2023-05-18T07:52:56.594Z,2.60
2023-05-18T07:55:23.649Z,2.80
2023-05-18T07:57:50.955Z,2.70
2023-05-18T08:03:20.282Z,2.80
2023-05-18T08:05:47.324Z,3.40
2023-05-18T08:08:15.194Z,2.70
2023-05-18T08:10:42.370Z,3.10
2023-05-18T08:13:09.378Z,3.50
2023-05-18T08:15:37.370Z,3.50
2023-05-18T08:18:04.434Z,3.10
2023-05-18T08:20:31.282Z,2.70
2023-05-18T08:22:58.102Z,2.80
2023-05-18T08:25:24.991Z,2.70
2023-05-18T08:27:51.796Z,2.60
2023-05-18T08:30:21.483Z,2.70
2023-05-18T08:32:48.890Z,2.80
2023-05-18T08:35:15.821Z,3.00
2023-05-18T08:37:42.571Z,3.10
2023-05-18T08:40:11.492Z,2.80
2023-05-18T08:42:49.502Z,3.30
2023-05-18T08:45:22.616Z,3.20
2023-05-18T08:47:52.772Z,2.70
2023-05-18T08:50:28.149Z,2.90
2023-05-18T08:52:55.704Z,2.50
2023-05-18T08:55:23.567Z,2.90
2023-05-18T08:57:56.576Z,2.70
2023-05-18T09:00:28.565Z,2.80
2023-05-18T09:02:55.913Z,2.60
2023-05-18T09:05:23.263Z,2.80
2023-05-18T09:07:51.049Z,3.70
2023-05-18T09:10:18.164Z,3.50
2023-05-18T09:12:47.905Z,3.10
2023-05-18T09:15:15.869Z,3.10
2023-05-18T09:17:42.882Z,2.90
2023-05-18T09:20:10.333Z,3.90
2023-05-18T09:22:37.221Z,3.30
2023-05-18T09:25:04.670Z,3.10
2023-05-18T09:27:31.647Z,2.90
2023-05-18T09:29:58.794Z,3.00
2023-05-18T09:32:25.826Z,4.20
2023-05-18T09:34:53.329Z,3.50
2023-05-18T09:37:21.671Z,4.80
2023-05-18T09:39:59.058Z,3.80
2023-05-18T09:42:39.188Z,3.50
2023-05-18T09:45:19.842Z,3.60
2023-05-18T09:47:46.993Z,3.70
2023-05-18T09:50:14.303Z,4.00
2023-05-18T09:52:45.006Z,3.80
2023-05-18T09:55:12.083Z,3.80
2023-05-18T09:57:46.513Z,3.70
2023-05-18T10:00:15.657Z,5.30
2023-05-18T10:02:46.535Z,3.80
2023-05-18T10:05:36.090Z,5.40
2023-05-18T10:08:03.178Z,3.50
2023-05-18T10:10:30.237Z,5.00
2023-05-18T10:12:58.535Z,4.40
2023-05-18T10:15:25.677Z,9.30
2023-05-18T10:17:55.892Z,6.50
2023-05-18T10:20:24.486Z,5.40
2023-05-18T10:22:51.352Z,5.50
2023-05-18T10:25:23.088Z,6.30
2023-05-18T10:27:50.815Z,4.50
2023-05-18T10:30:18.071Z,8.00
2023-05-18T10:32:45.669Z,6.80
2023-05-18T10:35:12.672Z,4.60
2023-05-18T10:37:42.950Z,4.20
2023-05-18T10:40:10.404Z,4.10
2023-05-18T10:42:37.481Z,4.50
2023-05-18T10:45:04.930Z,4.20
2023-05-18T10:47:32.785Z,4.80
2023-05-18T10:50:00.984Z,5.10
2023-05-18T10:52:31.813Z,4.60
2023-05-18T10:55:00.780Z,5.00
2023-05-18T10:57:34.711Z,5.00
2023-05-18T11:00:03.468Z,4.90
2023-05-18T11:02:30.280Z,5.00
2023-05-18T11:04:57.382Z,4.90
2023-05-18T11:07:25.366Z,5.20
2023-05-18T11:09:52.539Z,5.20
2023-05-18T11:12:19.359Z,5.10
2023-05-18T11:14:50.629Z,5.30
2023-05-18T11:17:22.005Z,5.80
2023-05-18T11:20:11.898Z,5.70
2023-05-18T11:22:49.171Z,6.10
2023-05-18T11:25:39.548Z,6.20
2023-05-18T11:28:08.401Z,6.20
2023-05-18T11:30:40.973Z,6.60
2023-05-18T11:33:11.787Z,6.90
2023-05-18T11:36:15.481Z,6.90
2023-05-18T11:38:49.493Z,6.90
2023-05-18T11:41:29.884Z,7.00
2023-05-18T11:44:15.248Z,8.30
2023-05-18T11:46:56.174Z,8.40
2023-05-18T11:49:25.909Z,8.70
2023-05-18T11:52:08.502Z,8.10
2023-05-18T11:54:39.897Z,8.70
2023-05-18T11:57:07.223Z,7.00
2023-05-18T11:59:37.338Z,7.30
2023-05-18T12:02:04.335Z,6.20
2023-05-18T12:04:32.663Z,5.60
2023-05-18T12:06:59.953Z,6.10
2023-05-18T12:09:27.196Z,6.20
2023-05-18T12:11:55.154Z,4.60
2023-05-18T12:14:22.028Z,4.90
2023-05-18T12:16:51.988Z,5.00
2023-05-18T12:19:19.796Z,5.30
2023-05-18T12:21:47.206Z,4.90
2023-05-18T12:24:14.284Z,4.90
2023-05-18T12:26:41.731Z,5.90
2023-05-18T12:29:10.404Z,5.60
2023-05-18T12:31:40.580Z,5.30
2023-05-18T12:34:09.471Z,5.00
2023-05-18T12:36:43.540Z,4.70
2023-05-18T12:39:11.177Z,5.00
2023-05-18T12:41:37.985Z,6.00
2023-05-18T12:44:05.421Z,6.20
2023-05-18T12:46:32.794Z,6.60
2023-05-18T12:49:01.631Z,6.40
2023-05-18T12:51:38.842Z,7.30
2023-05-18T12:54:06.460Z,7.70
2023-05-18T12:57:02.584Z,7.70
2023-05-18T12:59:29.983Z,7.50
2023-05-18T13:01:58.790Z,7.70
2023-05-18T13:04:36.343Z,8.70
2023-05-18T13:07:03.524Z,8.10
2023-05-18T13:09:30.822Z,8.40
2023-05-18T13:12:07.407Z,8.40
2023-05-18T13:14:38.253Z,8.20
2023-05-18T13:17:06.050Z,8.50
2023-05-18T13:19:35.102Z,8.70
2023-05-18T13:22:02.190Z,8.40
2023-05-18T13:24:28.953Z,8.00
2023-05-18T13:26:55.888Z,7.40
2023-05-18T13:29:22.761Z,8.20
2023-05-18T13:31:49.729Z,7.60
2023-05-18T13:34:16.820Z,7.70
2023-05-18T13:36:43.737Z,7.50
2023-05-18T13:39:10.986Z,7.80
2023-05-18T13:41:37.826Z,8.30
2023-05-18T13:44:04.706Z,7.50
2023-05-18T13:46:31.876Z,9.00
2023-05-18T13:48:59.008Z,8.30
2023-05-18T13:51:25.897Z,7.90
2023-05-18T13:53:52.771Z,7.30
2023-05-18T13:56:19.544Z,6.80
2023-05-18T13:58:47.519Z,5.80
2023-05-18T14:01:14.448Z,4.30
2023-05-18T14:03:41.385Z,3.80
2023-05-18T14:06:08.333Z,4.00
2023-05-18T14:08:35.086Z,4.10
2023-05-18T14:11:01.980Z,4.30
2023-05-18T14:13:29.394Z,3.60
2023-05-18T14:15:56.408Z,4.10
2023-05-18T14:18:23.233Z,3.80
2023-05-18T14:20:50.213Z,3.70
2023-05-18T14:23:17.836Z,3.80
2023-05-18T14:25:46.034Z,3.90
2023-05-18T14:28:13.525Z,4.40
2023-05-18T14:30:40.627Z,3.70
2023-05-18T14:33:07.546Z,4.20
2023-05-18T14:35:34.633Z,3.70
2023-05-18T14:38:02.903Z,4.20
2023-05-18T14:40:30.168Z,4.00
2023-05-18T14:42:57.300Z,3.70
2023-05-18T14:45:24.221Z,4.10
2023-05-18T14:47:51.651Z,4.70
2023-05-18T14:50:18.674Z,4.70
2023-05-18T14:52:45.603Z,4.40
2023-05-18T14:55:12.435Z,3.90
2023-05-18T14:57:39.292Z,4.00
2023-05-18T15:00:07.065Z,3.90
2023-05-18T15:02:34.198Z,3.70
2023-05-18T15:05:01.091Z,4.00
2023-05-18T15:07:27.926Z,4.50
2023-05-18T15:09:55.471Z,4.20
2023-05-18T15:12:23.405Z,4.60
2023-05-18T15:14:50.661Z,3.90
2023-05-18T15:17:18.130Z,4.20
2023-05-18T15:19:45.204Z,4.00
2023-05-18T15:22:12.059Z,4.00
2023-05-18T15:24:38.846Z,3.70
2023-05-18T15:27:06.437Z,3.80
2023-05-18T15:29:33.395Z,3.60
2023-05-18T15:32:00.364Z,3.60
2023-05-18T15:34:27.370Z,3.70
2023-05-18T15:36:54.257Z,3.80
2023-05-18T15:39:21.154Z,3.30
2023-05-18T15:41:48.053Z,3.60
2023-05-18T15:44:14.970Z,3.80
2023-05-18T15:46:41.690Z,3.80
2023-05-18T15:49:08.611Z,3.60
2023-05-18T15:51:35.451Z,3.70
2023-05-18T15:54:02.265Z,3.20
2023-05-18T15:56:29.035Z,3.50
2023-05-18T16:02:19.901Z,3.30
2023-05-18T16:04:47.221Z,3.30
2023-05-18T16:07:15.274Z,3.30
2023-05-18T16:09:42.659Z,3.30
2023-05-18T16:12:09.515Z,3.20
2023-05-18T16:14:36.370Z,2.70
2023-05-18T16:17:03.337Z,3.10
2023-05-18T16:19:30.634Z,3.00
2023-05-18T16:21:57.610Z,3.30
2023-05-18T16:24:24.848Z,3.70
2023-05-18T16:26:51.686Z,3.10
2023-05-18T16:29:18.521Z,3.80
2023-05-18T16:31:45.688Z,2.80
2023-05-18T16:34:12.497Z,3.20
2023-05-18T16:36:39.301Z,3.10
2023-05-18T16:39:07.900Z,3.00
2023-05-18T16:41:34.750Z,3.10
2023-05-18T16:44:01.631Z,3.20
2023-05-18T16:46:28.708Z,3.90
2023-05-18T16:48:55.930Z,3.80
2023-05-18T16:51:22.795Z,3.80
2023-05-18T16:53:52.437Z,3.90
2023-05-18T16:56:22.182Z,4.30
2023-05-18T16:58:53.545Z,3.90
2023-05-18T17:01:28.218Z,3.60
2023-05-18T17:03:56.289Z,4.10
2023-05-18T17:06:23.801Z,3.80
2023-05-18T17:08:58.432Z,3.20
2023-05-18T17:11:29.243Z,3.20
2023-05-18T17:13:57.751Z,9.40
2023-05-18T17:16:26.618Z,7.40
